sensor_id;sensor_type;location;lat;lon;timestamp;P1;durP1;ratioP1;P2;durP2;ratioP2
32228;SDS011;18717;48.034;11.186;2024-02-15T00:00:52;9.50;;;8.90;;
32228;SDS011;18717;48.034;11.186;2024-02-15T00:03:20;10.05;;;9.45;;
32228;SDS011;18717;48.034;11.186;2024-02-15T00:06:06;9.85;;;9.20;;
32228;SDS011;18717;48.034;11.186;2024-02-15T00:08:34;9.73;;;8.80;;
32228;SDS011;18717;48.034;11.186;2024-02-15T00:11:02;11.88;;;9.88;;
32228;SDS011;18717;48.034;11.186;2024-02-15T00:13:30;9.93;;;9.20;;
32228;SDS011;18717;48.034;11.186;2024-02-15T00:16:01;9.35;;;8.85;;
32228;SDS011;18717;48.034;11.186;2024-02-15T00:18:31;10.38;;;9.73;;
32228;SDS011;18717;48.034;11.186;2024-02-15T00:20:59;10.23;;;9.38;;
32228;SDS011;18717;48.034;11.186;2024-02-15T00:23:27;9.88;;;9.18;;
32228;SDS011;18717;48.034;11.186;2024-02-15T00:25:55;10.68;;;9.98;;
32228;SDS011;18717;48.034;11.186;2024-02-15T00:28:23;11.32;;;10.63;;
32228;SDS011;18717;48.034;11.186;2024-02-15T00:30:53;10.52;;;9.90;;
32228;SDS011;18717;48.034;11.186;2024-02-15T00:33:22;9.93;;;9.10;;
32228;SDS011;18717;48.034;11.186;2024-02-15T00:35:50;10.35;;;9.75;;
32228;SDS011;18717;48.034;11.186;2024-02-15T00:38:18;10.05;;;9.38;;
32228;SDS011;18717;48.034;11.186;2024-02-15T00:40:46;10.15;;;9.55;;
32228;SDS011;18717;48.034;11.186;2024-02-15T00:43:14;9.05;;;8.48;;
32228;SDS011;18717;48.034;11.186;2024-02-15T00:45:42;9.60;;;8.82;;
32228;SDS011;18717;48.034;11.186;2024-02-15T00:48:09;10.15;;;9.43;;
32228;SDS011;18717;48.034;11.186;2024-02-15T00:50:39;9.85;;;9.05;;
32228;SDS011;18717;48.034;11.186;2024-02-15T00:53:07;9.70;;;9.10;;
32228;SDS011;18717;48.034;11.186;2024-02-15T00:55:34;10.00;;;9.20;;
32228;SDS011;18717;48.034;11.186;2024-02-15T00:58:02;9.95;;;9.25;;
32228;SDS011;18717;48.034;11.186;2024-02-15T01:00:30;10.98;;;10.18;;
32228;SDS011;18717;48.034;11.186;2024-02-15T01:02:58;10.93;;;10.15;;
32228;SDS011;18717;48.034;11.186;2024-02-15T01:05:26;10.70;;;10.00;;
32228;SDS011;18717;48.034;11.186;2024-02-15T01:07:55;11.00;;;10.30;;
32228;SDS011;18717;48.034;11.186;2024-02-15T01:10:23;11.85;;;10.65;;
32228;SDS011;18717;48.034;11.186;2024-02-15T01:12:52;10.38;;;9.68;;
32228;SDS011;18717;48.034;11.186;2024-02-15T01:15:20;11.32;;;10.40;;
32228;SDS011;18717;48.034;11.186;2024-02-15T01:17:48;12.25;;;11.25;;
32228;SDS011;18717;48.034;11.186;2024-02-15T01:20:16;11.38;;;10.40;;
32228;SDS011;18717;48.034;11.186;2024-02-15T01:22:43;11.68;;;10.93;;
32228;SDS011;18717;48.034;11.186;2024-02-15T01:25:13;11.18;;;10.10;;
32228;SDS011;18717;48.034;11.186;2024-02-15T01:27:42;10.82;;;10.02;;
32228;SDS011;18717;48.034;11.186;2024-02-15T01:30:10;11.35;;;10.55;;
32228;SDS011;18717;48.034;11.186;2024-02-15T01:32:38;11.00;;;9.93;;
32228;SDS011;18717;48.034;11.186;2024-02-15T01:35:09;11.18;;;10.02;;
32228;SDS011;18717;48.034;11.186;2024-02-15T01:37:37;10.80;;;10.00;;
32228;SDS011;18717;48.034;11.186;2024-02-15T01:40:05;10.98;;;10.00;;
32228;SDS011;18717;48.034;11.186;2024-02-15T01:42:35;10.23;;;9.52;;
32228;SDS011;18717;48.034;11.186;2024-02-15T01:45:03;11.68;;;10.65;;
32228;SDS011;18717;48.034;11.186;2024-02-15T01:47:32;11.00;;;10.00;;
32228;SDS011;18717;48.034;11.186;2024-02-15T01:50:00;10.48;;;9.77;;
32228;SDS011;18717;48.034;11.186;2024-02-15T01:52:29;10.32;;;9.55;;
32228;SDS011;18717;48.034;11.186;2024-02-15T01:54:57;10.27;;;9.68;;
32228;SDS011;18717;48.034;11.186;2024-02-15T01:57:25;10.20;;;9.40;;
32228;SDS011;18717;48.034;11.186;2024-02-15T01:59:55;10.30;;;9.60;;
32228;SDS011;18717;48.034;11.186;2024-02-15T02:02:23;10.10;;;9.15;;
32228;SDS011;18717;48.034;11.186;2024-02-15T02:04:52;10.75;;;9.88;;
32228;SDS011;18717;48.034;11.186;2024-02-15T02:07:20;10.18;;;9.48;;
32228;SDS011;18717;48.034;11.186;2024-02-15T02:09:48;10.32;;;9.48;;
32228;SDS011;18717;48.034;11.186;2024-02-15T02:12:16;10.20;;;9.40;;
32228;SDS011;18717;48.034;11.186;2024-02-15T02:14:44;10.68;;;9.98;;
32228;SDS011;18717;48.034;11.186;2024-02-15T02:17:13;10.40;;;9.50;;
32228;SDS011;18717;48.034;11.186;2024-02-15T02:19:42;9.82;;;9.23;;
32228;SDS011;18717;48.034;11.186;2024-02-15T02:22:11;10.63;;;9.82;;
32228;SDS011;18717;48.034;11.186;2024-02-15T02:24:40;9.95;;;9.35;;
32228;SDS011;18717;48.034;11.186;2024-02-15T02:27:20;10.82;;;9.95;;
32228;SDS011;18717;48.034;11.186;2024-02-15T02:29:48;10.25;;;9.52;;
32228;SDS011;18717;48.034;11.186;2024-02-15T02:32:16;9.35;;;8.65;;
32228;SDS011;18717;48.034;11.186;2024-02-15T02:34:44;10.38;;;9.65;;
32228;SDS011;18717;48.034;11.186;2024-02-15T02:37:12;10.40;;;9.60;;
32228;SDS011;18717;48.034;11.186;2024-02-15T02:39:40;10.20;;;9.25;;
32228;SDS011;18717;48.034;11.186;2024-02-15T02:42:11;10.43;;;9.68;;
32228;SDS011;18717;48.034;11.186;2024-02-15T02:44:39;9.93;;;9.32;;
32228;SDS011;18717;48.034;11.186;2024-02-15T02:47:07;10.18;;;9.48;;
32228;SDS011;18717;48.034;11.186;2024-02-15T02:49:35;9.68;;;9.13;;
32228;SDS011;18717;48.034;11.186;2024-02-15T02:52:03;9.45;;;8.85;;
32228;SDS011;18717;48.034;11.186;2024-02-15T02:54:31;9.30;;;8.68;;
32228;SDS011;18717;48.034;11.186;2024-02-15T02:56:59;10.15;;;9.38;;
32228;SDS011;18717;48.034;11.186;2024-02-15T02:59:29;10.02;;;9.38;;
32228;SDS011;18717;48.034;11.186;2024-02-15T03:01:57;10.20;;;9.55;;
32228;SDS011;18717;48.034;11.186;2024-02-15T03:04:24;9.73;;;9.05;;
32228;SDS011;18717;48.034;11.186;2024-02-15T03:06:52;10.98;;;10.07;;
32228;SDS011;18717;48.034;11.186;2024-02-15T03:09:22;10.27;;;9.68;;
32228;SDS011;18717;48.034;11.186;2024-02-15T03:11:52;10.45;;;9.65;;
32228;SDS011;18717;48.034;11.186;2024-02-15T03:14:20;10.20;;;9.60;;
32228;SDS011;18717;48.034;11.186;2024-02-15T03:16:49;10.38;;;9.45;;
32228;SDS011;18717;48.034;11.186;2024-02-15T03:19:17;9.65;;;9.15;;
32228;SDS011;18717;48.034;11.186;2024-02-15T03:21:45;10.05;;;9.30;;
32228;SDS011;18717;48.034;11.186;2024-02-15T03:24:13;10.40;;;9.50;;
32228;SDS011;18717;48.034;11.186;2024-02-15T03:26:41;9.70;;;9.10;;
32228;SDS011;18717;48.034;11.186;2024-02-15T03:29:09;10.13;;;9.10;;
32228;SDS011;18717;48.034;11.186;2024-02-15T03:31:37;9.77;;;9.05;;
32228;SDS011;18717;48.034;11.186;2024-02-15T03:34:06;9.48;;;8.77;;
32228;SDS011;18717;48.034;11.186;2024-02-15T03:36:37;10.55;;;9.68;;
32228;SDS011;18717;48.034;11.186;2024-02-15T03:39:05;10.00;;;9.40;;
32228;SDS011;18717;48.034;11.186;2024-02-15T03:41:34;9.95;;;9.18;;
32228;SDS011;18717;48.034;11.186;2024-02-15T03:44:02;9.35;;;8.65;;
32228;SDS011;18717;48.034;11.186;2024-02-15T03:46:30;9.27;;;8.57;;
32228;SDS011;18717;48.034;11.186;2024-02-15T03:48:58;9.25;;;8.35;;
32228;SDS011;18717;48.034;11.186;2024-02-15T03:51:28;9.25;;;8.68;;
32228;SDS011;18717;48.034;11.186;2024-02-15T03:53:55;9.57;;;8.95;;
32228;SDS011;18717;48.034;11.186;2024-02-15T03:56:24;9.23;;;8.52;;
32228;SDS011;18717;48.034;11.186;2024-02-15T03:58:52;9.75;;;9.07;;
32228;SDS011;18717;48.034;11.186;2024-02-15T04:01:20;10.32;;;9.52;;
32228;SDS011;18717;48.034;11.186;2024-02-15T04:03:48;10.48;;;9.88;;
32228;SDS011;18717;48.034;11.186;2024-02-15T04:06:16;9.30;;;8.60;;
32228;SDS011;18717;48.034;11.186;2024-02-15T04:08:45;9.40;;;8.70;;
32228;SDS011;18717;48.034;11.186;2024-02-15T04:11:13;9.50;;;8.80;;
32228;SDS011;18717;48.034;11.186;2024-02-15T04:13:42;9.55;;;8.90;;
32228;SDS011;18717;48.034;11.186;2024-02-15T04:16:10;11.10;;;10.20;;
32228;SDS011;18717;48.034;11.186;2024-02-15T04:18:40;8.85;;;8.35;;
32228;SDS011;18717;48.034;11.186;2024-02-15T04:21:08;9.50;;;8.88;;
32228;SDS011;18717;48.034;11.186;2024-02-15T04:23:36;9.98;;;9.18;;
32228;SDS011;18717;48.034;11.186;2024-02-15T04:26:05;9.40;;;8.70;;
32228;SDS011;18717;48.034;11.186;2024-02-15T04:28:34;10.80;;;10.00;;
32228;SDS011;18717;48.034;11.186;2024-02-15T04:31:01;10.52;;;9.55;;
32228;SDS011;18717;48.034;11.186;2024-02-15T04:33:29;9.82;;;9.10;;
32228;SDS011;18717;48.034;11.186;2024-02-15T04:35:57;9.25;;;8.63;;
32228;SDS011;18717;48.034;11.186;2024-02-15T04:38:27;9.98;;;9.07;;
32228;SDS011;18717;48.034;11.186;2024-02-15T04:40:54;8.68;;;8.18;;
32228;SDS011;18717;48.034;11.186;2024-02-15T04:43:23;10.07;;;9.38;;
32228;SDS011;18717;48.034;11.186;2024-02-15T04:45:52;9.40;;;8.90;;
32228;SDS011;18717;48.034;11.186;2024-02-15T04:48:19;9.57;;;8.88;;
32228;SDS011;18717;48.034;11.186;2024-02-15T04:50:49;9.32;;;8.73;;
32228;SDS011;18717;48.034;11.186;2024-02-15T04:53:18;9.13;;;8.43;;
32228;SDS011;18717;48.034;11.186;2024-02-15T04:55:47;9.50;;;8.93;;
32228;SDS011;18717;48.034;11.186;2024-02-15T04:58:15;9.00;;;8.40;;
32228;SDS011;18717;48.034;11.186;2024-02-15T05:00:44;9.20;;;8.60;;
32228;SDS011;18717;48.034;11.186;2024-02-15T05:03:12;9.00;;;8.50;;
32228;SDS011;18717;48.034;11.186;2024-02-15T05:05:40;9.18;;;8.57;;
32228;SDS011;18717;48.034;11.186;2024-02-15T05:08:08;9.38;;;8.77;;
32228;SDS011;18717;48.034;11.186;2024-02-15T05:10:36;10.02;;;9.32;;
32228;SDS011;18717;48.034;11.186;2024-02-15T05:13:04;10.77;;;9.70;;
32228;SDS011;18717;48.034;11.186;2024-02-15T05:15:32;9.70;;;9.00;;
32228;SDS011;18717;48.034;11.186;2024-02-15T05:18:01;9.10;;;8.50;;
32228;SDS011;18717;48.034;11.186;2024-02-15T05:20:29;10.73;;;8.70;;
32228;SDS011;18717;48.034;11.186;2024-02-15T05:22:57;9.63;;;8.82;;
32228;SDS011;18717;48.034;11.186;2024-02-15T05:25:25;10.45;;;9.75;;
32228;SDS011;18717;48.034;11.186;2024-02-15T05:27:53;9.32;;;8.52;;
32228;SDS011;18717;48.034;11.186;2024-02-15T05:30:23;10.02;;;9.32;;
32228;SDS011;18717;48.034;11.186;2024-02-15T05:32:50;9.75;;;8.90;;
32228;SDS011;18717;48.034;11.186;2024-02-15T05:35:22;9.38;;;8.68;;
32228;SDS011;18717;48.034;11.186;2024-02-15T05:37:51;10.50;;;9.70;;
32228;SDS011;18717;48.034;11.186;2024-02-15T05:40:20;9.23;;;8.52;;
32228;SDS011;18717;48.034;11.186;2024-02-15T05:42:47;9.73;;;9.10;;
32228;SDS011;18717;48.034;11.186;2024-02-15T05:45:35;9.07;;;8.52;;
32228;SDS011;18717;48.034;11.186;2024-02-15T05:48:06;9.55;;;8.68;;
32228;SDS011;18717;48.034;11.186;2024-02-15T05:50:36;9.55;;;8.85;;
32228;SDS011;18717;48.034;11.186;2024-02-15T05:53:04;9.15;;;8.45;;
32228;SDS011;18717;48.034;11.186;2024-02-15T05:55:34;9.73;;;9.02;;
32228;SDS011;18717;48.034;11.186;2024-02-15T05:58:04;9.77;;;9.00;;
32228;SDS011;18717;48.034;11.186;2024-02-15T06:00:32;9.52;;;8.82;;
32228;SDS011;18717;48.034;11.186;2024-02-15T06:03:01;9.07;;;8.48;;
32228;SDS011;18717;48.034;11.186;2024-02-15T06:05:29;9.52;;;8.65;;
32228;SDS011;18717;48.034;11.186;2024-02-15T06:07:59;9.57;;;8.57;;
32228;SDS011;18717;48.034;11.186;2024-02-15T06:10:26;9.13;;;8.48;;
32228;SDS011;18717;48.034;11.186;2024-02-15T06:12:56;8.93;;;8.23;;
32228;SDS011;18717;48.034;11.186;2024-02-15T06:15:24;9.40;;;8.80;;
32228;SDS011;18717;48.034;11.186;2024-02-15T06:17:51;8.80;;;8.10;;
32228;SDS011;18717;48.034;11.186;2024-02-15T06:20:20;9.75;;;8.88;;
32228;SDS011;18717;48.034;11.186;2024-02-15T06:22:49;8.75;;;8.25;;
32228;SDS011;18717;48.034;11.186;2024-02-15T06:25:19;8.77;;;8.18;;
32228;SDS011;18717;48.034;11.186;2024-02-15T06:27:48;8.70;;;8.00;;
32228;SDS011;18717;48.034;11.186;2024-02-15T06:30:19;8.73;;;8.13;;
32228;SDS011;18717;48.034;11.186;2024-02-15T06:33:05;9.40;;;8.63;;
32228;SDS011;18717;48.034;11.186;2024-02-15T06:35:50;8.93;;;8.18;;
32228;SDS011;18717;48.034;11.186;2024-02-15T06:38:36;8.82;;;8.20;;
32228;SDS011;18717;48.034;11.186;2024-02-15T06:41:23;9.05;;;8.45;;
32228;SDS011;18717;48.034;11.186;2024-02-15T06:43:52;8.38;;;7.88;;
32228;SDS011;18717;48.034;11.186;2024-02-15T06:46:20;8.50;;;7.97;;
32228;SDS011;18717;48.034;11.186;2024-02-15T06:48:48;8.98;;;8.38;;
32228;SDS011;18717;48.034;11.186;2024-02-15T06:51:16;8.55;;;8.02;;
32228;SDS011;18717;48.034;11.186;2024-02-15T06:53:44;9.35;;;8.48;;
32228;SDS011;18717;48.034;11.186;2024-02-15T06:56:12;8.65;;;7.95;;
32228;SDS011;18717;48.034;11.186;2024-02-15T06:58:42;9.25;;;8.60;;
32228;SDS011;18717;48.034;11.186;2024-02-15T07:01:09;9.80;;;9.00;;
32228;SDS011;18717;48.034;11.186;2024-02-15T07:03:40;9.05;;;8.45;;
32228;SDS011;18717;48.034;11.186;2024-02-15T07:06:07;8.35;;;7.72;;
32228;SDS011;18717;48.034;11.186;2024-02-15T07:08:35;8.88;;;8.27;;
32228;SDS011;18717;48.034;11.186;2024-02-15T07:11:03;8.50;;;7.95;;
32228;SDS011;18717;48.034;11.186;2024-02-15T07:13:33;9.02;;;8.25;;
32228;SDS011;18717;48.034;11.186;2024-02-15T07:16:02;9.05;;;8.32;;
32228;SDS011;18717;48.034;11.186;2024-02-15T07:18:32;9.40;;;8.90;;
32228;SDS011;18717;48.034;11.186;2024-02-15T07:21:00;8.57;;;7.97;;
32228;SDS011;18717;48.034;11.186;2024-02-15T07:23:30;9.10;;;8.43;;
32228;SDS011;18717;48.034;11.186;2024-02-15T07:26:02;9.77;;;8.98;;
32228;SDS011;18717;48.034;11.186;2024-02-15T07:28:30;9.57;;;8.80;;
32228;SDS011;18717;48.034;11.186;2024-02-15T07:30:58;11.68;;;10.55;;
32228;SDS011;18717;48.034;11.186;2024-02-15T07:33:30;11.55;;;10.57;;
32228;SDS011;18717;48.034;11.186;2024-02-15T07:35:58;12.00;;;10.93;;
32228;SDS011;18717;48.034;11.186;2024-02-15T07:38:26;12.25;;;11.15;;
32228;SDS011;18717;48.034;11.186;2024-02-15T07:40:55;9.55;;;8.85;;
32228;SDS011;18717;48.034;11.186;2024-02-15T07:43:23;10.10;;;9.05;;
32228;SDS011;18717;48.034;11.186;2024-02-15T07:45:51;9.95;;;9.15;;
32228;SDS011;18717;48.034;11.186;2024-02-15T07:48:19;9.98;;;9.27;;
32228;SDS011;18717;48.034;11.186;2024-02-15T07:50:48;9.38;;;8.68;;
32228;SDS011;18717;48.034;11.186;2024-02-15T07:53:16;9.73;;;9.02;;
32228;SDS011;18717;48.034;11.186;2024-02-15T07:55:43;8.98;;;8.23;;
32228;SDS011;18717;48.034;11.186;2024-02-15T07:58:11;9.98;;;9.05;;
32228;SDS011;18717;48.034;11.186;2024-02-15T08:00:40;8.50;;;8.00;;
32228;SDS011;18717;48.034;11.186;2024-02-15T08:03:08;9.52;;;8.80;;
32228;SDS011;18717;48.034;11.186;2024-02-15T08:05:36;8.48;;;7.97;;
32228;SDS011;18717;48.034;11.186;2024-02-15T08:08:06;8.55;;;8.05;;
32228;SDS011;18717;48.034;11.186;2024-02-15T08:10:33;8.93;;;8.25;;
32228;SDS011;18717;48.034;11.186;2024-02-15T08:13:01;9.00;;;8.30;;
32228;SDS011;18717;48.034;11.186;2024-02-15T08:15:29;9.27;;;8.43;;
32228;SDS011;18717;48.034;11.186;2024-02-15T08:17:58;9.27;;;8.60;;
32228;SDS011;18717;48.034;11.186;2024-02-15T08:20:26;9.18;;;8.60;;
32228;SDS011;18717;48.034;11.186;2024-02-15T08:22:57;8.93;;;8.32;;
32228;SDS011;18717;48.034;11.186;2024-02-15T08:25:27;10.43;;;9.63;;
32228;SDS011;18717;48.034;11.186;2024-02-15T08:27:55;9.60;;;8.90;;
32228;SDS011;18717;48.034;11.186;2024-02-15T08:30:22;9.07;;;8.50;;
32228;SDS011;18717;48.034;11.186;2024-02-15T08:32:51;9.18;;;8.55;;
32228;SDS011;18717;48.034;11.186;2024-02-15T08:35:21;9.77;;;9.07;;
32228;SDS011;18717;48.034;11.186;2024-02-15T08:37:49;9.85;;;9.15;;
32228;SDS011;18717;48.034;11.186;2024-02-15T08:40:19;9.27;;;8.68;;
32228;SDS011;18717;48.034;11.186;2024-02-15T08:42:53;9.57;;;8.98;;
32228;SDS011;18717;48.034;11.186;2024-02-15T08:45:21;10.38;;;9.68;;
32228;SDS011;18717;48.034;11.186;2024-02-15T08:47:50;9.55;;;8.93;;
32228;SDS011;18717;48.034;11.186;2024-02-15T08:50:20;9.95;;;9.35;;
32228;SDS011;18717;48.034;11.186;2024-02-15T08:52:50;9.70;;;9.00;;
32228;SDS011;18717;48.034;11.186;2024-02-15T08:55:18;10.13;;;9.48;;
32228;SDS011;18717;48.034;11.186;2024-02-15T08:57:50;10.50;;;9.80;;
32228;SDS011;18717;48.034;11.186;2024-02-15T09:00:19;9.82;;;9.02;;
32228;SDS011;18717;48.034;11.186;2024-02-15T09:02:47;10.45;;;9.85;;
32228;SDS011;18717;48.034;11.186;2024-02-15T09:05:16;10.18;;;9.57;;
32228;SDS011;18717;48.034;11.186;2024-02-15T09:07:45;9.52;;;8.98;;
32228;SDS011;18717;48.034;11.186;2024-02-15T09:10:14;9.50;;;9.00;;
32228;SDS011;18717;48.034;11.186;2024-02-15T09:12:43;10.93;;;9.93;;
32228;SDS011;18717;48.034;11.186;2024-02-15T09:15:14;10.15;;;9.30;;
32228;SDS011;18717;48.034;11.186;2024-02-15T09:17:43;10.98;;;9.93;;
32228;SDS011;18717;48.034;11.186;2024-02-15T09:20:13;10.13;;;9.35;;
32228;SDS011;18717;48.034;11.186;2024-02-15T09:22:42;10.20;;;9.50;;
32228;SDS011;18717;48.034;11.186;2024-02-15T09:25:12;10.00;;;9.40;;
32228;SDS011;18717;48.034;11.186;2024-02-15T09:27:40;10.35;;;9.65;;
32228;SDS011;18717;48.034;11.186;2024-02-15T09:30:09;10.85;;;9.93;;
32228;SDS011;18717;48.034;11.186;2024-02-15T09:32:38;9.70;;;9.20;;
32228;SDS011;18717;48.034;11.186;2024-02-15T09:35:08;10.68;;;10.07;;
32228;SDS011;18717;48.034;11.186;2024-02-15T09:37:42;10.50;;;9.73;;
32228;SDS011;18717;48.034;11.186;2024-02-15T09:40:12;10.23;;;9.63;;
32228;SDS011;18717;48.034;11.186;2024-02-15T09:42:42;10.60;;;9.65;;
32228;SDS011;18717;48.034;11.186;2024-02-15T09:45:11;10.40;;;9.80;;
32228;SDS011;18717;48.034;11.186;2024-02-15T09:47:42;9.80;;;9.30;;
32228;SDS011;18717;48.034;11.186;2024-02-15T09:50:11;10.07;;;9.65;;
32228;SDS011;18717;48.034;11.186;2024-02-15T09:52:44;10.20;;;9.48;;
32228;SDS011;18717;48.034;11.186;2024-02-15T09:57:41;10.48;;;9.85;;
32228;SDS011;18717;48.034;11.186;2024-02-15T10:00:10;10.88;;;10.10;;
32228;SDS011;18717;48.034;11.186;2024-02-15T10:02:40;10.10;;;9.50;;
32228;SDS011;18717;48.034;11.186;2024-02-15T10:05:12;10.77;;;10.07;;
32228;SDS011;18717;48.034;11.186;2024-02-15T10:07:40;10.68;;;10.18;;
32228;SDS011;18717;48.034;11.186;2024-02-15T10:10:14;10.77;;;10.18;;
32228;SDS011;18717;48.034;11.186;2024-02-15T10:12:43;10.88;;;10.18;;
32228;SDS011;18717;48.034;11.186;2024-02-15T10:15:26;10.40;;;9.90;;
32228;SDS011;18717;48.034;11.186;2024-02-15T10:17:59;11.32;;;10.63;;
32228;SDS011;18717;48.034;11.186;2024-02-15T10:20:28;11.23;;;10.57;;
32228;SDS011;18717;48.034;11.186;2024-02-15T10:23:08;15.15;;;11.68;;
32228;SDS011;18717;48.034;11.186;2024-02-15T10:25:37;11.00;;;10.50;;
32228;SDS011;18717;48.034;11.186;2024-02-15T10:28:06;11.10;;;10.55;;
32228;SDS011;18717;48.034;11.186;2024-02-15T10:30:35;11.75;;;11.15;;
32228;SDS011;18717;48.034;11.186;2024-02-15T10:33:03;12.02;;;11.38;;
32228;SDS011;18717;48.034;11.186;2024-02-15T10:35:33;11.30;;;10.60;;
32228;SDS011;18717;48.034;11.186;2024-02-15T10:38:04;11.93;;;11.02;;
32228;SDS011;18717;48.034;11.186;2024-02-15T10:40:34;11.88;;;11.25;;
32228;SDS011;18717;48.034;11.186;2024-02-15T10:43:02;11.45;;;10.75;;
32228;SDS011;18717;48.034;11.186;2024-02-15T10:45:31;11.40;;;10.60;;
32228;SDS011;18717;48.034;11.186;2024-02-15T10:47:59;10.68;;;10.27;;
32228;SDS011;18717;48.034;11.186;2024-02-15T10:50:27;11.43;;;10.82;;
32228;SDS011;18717;48.034;11.186;2024-02-15T10:52:58;11.65;;;11.13;;
32228;SDS011;18717;48.034;11.186;2024-02-15T10:55:33;11.82;;;11.23;;
32228;SDS011;18717;48.034;11.186;2024-02-15T10:58:05;11.82;;;11.02;;
32228;SDS011;18717;48.034;11.186;2024-02-15T11:00:33;11.77;;;11.18;;
32228;SDS011;18717;48.034;11.186;2024-02-15T11:03:04;11.43;;;10.82;;
32228;SDS011;18717;48.034;11.186;2024-02-15T11:05:34;11.38;;;10.88;;
32228;SDS011;18717;48.034;11.186;2024-02-15T11:08:06;12.18;;;11.50;;
32228;SDS011;18717;48.034;11.186;2024-02-15T11:10:36;11.65;;;11.15;;
32228;SDS011;18717;48.034;11.186;2024-02-15T11:13:04;11.30;;;10.77;;
32228;SDS011;18717;48.034;11.186;2024-02-15T11:15:43;11.98;;;11.38;;
32228;SDS011;18717;48.034;11.186;2024-02-15T11:21:12;10.73;;;10.23;;
32228;SDS011;18717;48.034;11.186;2024-02-15T11:23:41;10.73;;;10.27;;
32228;SDS011;18717;48.034;11.186;2024-02-15T11:35:12;11.50;;;10.93;;
32228;SDS011;18717;48.034;11.186;2024-02-15T11:37:55;10.90;;;10.50;;
32228;SDS011;18717;48.034;11.186;2024-02-15T11:40:28;11.70;;;11.05;;
32228;SDS011;18717;48.034;11.186;2024-02-15T11:42:56;12.13;;;11.50;;
32228;SDS011;18717;48.034;11.186;2024-02-15T11:45:27;11.48;;;10.98;;
32228;SDS011;18717;48.034;11.186;2024-02-15T11:47:59;11.48;;;10.77;;
32228;SDS011;18717;48.034;11.186;2024-02-15T11:50:28;10.82;;;10.35;;
32228;SDS011;18717;48.034;11.186;2024-02-15T11:53:03;11.23;;;10.73;;
32228;SDS011;18717;48.034;11.186;2024-02-15T11:55:37;11.40;;;10.90;;
32228;SDS011;18717;48.034;11.186;2024-02-15T11:58:07;11.13;;;10.68;;
32228;SDS011;18717;48.034;11.186;2024-02-15T12:00:45;11.38;;;10.88;;
32228;SDS011;18717;48.034;11.186;2024-02-15T12:03:30;11.40;;;10.90;;
32228;SDS011;18717;48.034;11.186;2024-02-15T12:06:29;11.40;;;10.90;;
32228;SDS011;18717;48.034;11.186;2024-02-15T12:09:17;11.25;;;10.75;;
32228;SDS011;18717;48.034;11.186;2024-02-15T12:12:04;11.30;;;10.80;;
32228;SDS011;18717;48.034;11.186;2024-02-15T12:14:50;10.70;;;10.30;;
32228;SDS011;18717;48.034;11.186;2024-02-15T12:17:35;11.55;;;10.95;;
32228;SDS011;18717;48.034;11.186;2024-02-15T12:20:21;11.15;;;10.73;;
32228;SDS011;18717;48.034;11.186;2024-02-15T12:22:52;11.40;;;10.88;;
32228;SDS011;18717;48.034;11.186;2024-02-15T12:25:20;10.95;;;10.45;;
32228;SDS011;18717;48.034;11.186;2024-02-15T12:27:54;10.95;;;10.48;;
32228;SDS011;18717;48.034;11.186;2024-02-15T12:30:22;10.63;;;10.20;;
32228;SDS011;18717;48.034;11.186;2024-02-15T12:32:52;11.25;;;10.75;;
32228;SDS011;18717;48.034;11.186;2024-02-15T12:35:20;11.38;;;10.88;;
32228;SDS011;18717;48.034;11.186;2024-02-15T12:38:00;11.23;;;10.55;;
32228;SDS011;18717;48.034;11.186;2024-02-15T12:40:31;10.88;;;10.45;;
32228;SDS011;18717;48.034;11.186;2024-02-15T12:43:01;10.60;;;10.00;;
32228;SDS011;18717;48.034;11.186;2024-02-15T12:45:31;10.55;;;10.15;;
32228;SDS011;18717;48.034;11.186;2024-02-15T12:48:02;11.13;;;10.63;;
32228;SDS011;18717;48.034;11.186;2024-02-15T12:50:32;10.60;;;10.15;;
32228;SDS011;18717;48.034;11.186;2024-02-15T12:53:00;10.45;;;10.02;;
32228;SDS011;18717;48.034;11.186;2024-02-15T12:55:29;11.02;;;10.60;;
32228;SDS011;18717;48.034;11.186;2024-02-15T12:58:03;10.98;;;10.52;;
32228;SDS011;18717;48.034;11.186;2024-02-15T13:00:35;11.32;;;10.82;;
32228;SDS011;18717;48.034;11.186;2024-02-15T13:03:07;11.20;;;10.70;;
32228;SDS011;18717;48.034;11.186;2024-02-15T13:05:38;10.43;;;10.03;;
32228;SDS011;18717;48.034;11.186;2024-02-15T13:08:07;11.63;;;11.13;;
32228;SDS011;18717;48.034;11.186;2024-02-15T13:10:40;11.57;;;10.88;;
32228;SDS011;18717;48.034;11.186;2024-02-15T13:13:10;10.80;;;10.40;;
32228;SDS011;18717;48.034;11.186;2024-02-15T13:15:40;12.07;;;11.20;;
32228;SDS011;18717;48.034;11.186;2024-02-15T13:18:08;11.02;;;10.50;;
32228;SDS011;18717;48.034;11.186;2024-02-15T13:20:40;11.60;;;11.10;;
32228;SDS011;18717;48.034;11.186;2024-02-15T13:23:08;11.13;;;10.73;;
32228;SDS011;18717;48.034;11.186;2024-02-15T13:25:42;11.10;;;10.60;;
32228;SDS011;18717;48.034;11.186;2024-02-15T13:28:12;11.10;;;10.70;;
32228;SDS011;18717;48.034;11.186;2024-02-15T13:30:40;10.65;;;10.25;;
32228;SDS011;18717;48.034;11.186;2024-02-15T13:33:11;11.32;;;10.82;;
32228;SDS011;18717;48.034;11.186;2024-02-15T13:35:39;10.75;;;10.30;;
32228;SDS011;18717;48.034;11.186;2024-02-15T13:38:07;11.15;;;10.65;;
32228;SDS011;18717;48.034;11.186;2024-02-15T13:40:41;11.93;;;11.32;;
32228;SDS011;18717;48.034;11.186;2024-02-15T13:43:13;10.90;;;10.50;;
32228;SDS011;18717;48.034;11.186;2024-02-15T13:45:40;11.52;;;11.02;;
32228;SDS011;18717;48.034;11.186;2024-02-15T13:48:08;11.32;;;10.82;;
32228;SDS011;18717;48.034;11.186;2024-02-15T13:50:39;11.73;;;11.23;;
32228;SDS011;18717;48.034;11.186;2024-02-15T13:53:07;11.50;;;11.00;;
32228;SDS011;18717;48.034;11.186;2024-02-15T13:55:36;11.18;;;10.73;;
32228;SDS011;18717;48.034;11.186;2024-02-15T13:58:04;11.68;;;11.18;;
32228;SDS011;18717;48.034;11.186;2024-02-15T14:00:36;11.52;;;10.93;;
32228;SDS011;18717;48.034;11.186;2024-02-15T14:03:04;11.60;;;11.10;;
32228;SDS011;18717;48.034;11.186;2024-02-15T14:05:33;11.10;;;10.63;;
32228;SDS011;18717;48.034;11.186;2024-02-15T14:08:01;11.40;;;10.88;;
32228;SDS011;18717;48.034;11.186;2024-02-15T14:10:32;11.82;;;11.32;;
32228;SDS011;18717;48.034;11.186;2024-02-15T14:13:02;11.70;;;11.30;;
32228;SDS011;18717;48.034;11.186;2024-02-15T14:15:32;11.38;;;10.77;;
32228;SDS011;18717;48.034;11.186;2024-02-15T14:18:05;12.23;;;11.52;;
32228;SDS011;18717;48.034;11.186;2024-02-15T14:20:34;12.00;;;11.35;;
32228;SDS011;18717;48.034;11.186;2024-02-15T14:23:02;11.10;;;10.70;;
32228;SDS011;18717;48.034;11.186;2024-02-15T14:25:32;11.00;;;10.60;;
32228;SDS011;18717;48.034;11.186;2024-02-15T14:28:01;11.32;;;10.82;;
32228;SDS011;18717;48.034;11.186;2024-02-15T14:30:31;11.07;;;10.57;;
32228;SDS011;18717;48.034;11.186;2024-02-15T14:33:18;11.55;;;11.05;;
32228;SDS011;18717;48.034;11.186;2024-02-15T14:35:48;11.40;;;10.90;;
32228;SDS011;18717;48.034;11.186;2024-02-15T14:38:17;11.30;;;10.80;;
32228;SDS011;18717;48.034;11.186;2024-02-15T14:40:47;10.98;;;10.50;;
32228;SDS011;18717;48.034;11.186;2024-02-15T14:43:19;11.38;;;10.77;;
32228;SDS011;18717;48.034;11.186;2024-02-15T14:45:48;11.00;;;10.60;;
32228;SDS011;18717;48.034;11.186;2024-02-15T14:48:17;11.20;;;10.60;;
32228;SDS011;18717;48.034;11.186;2024-02-15T14:50:47;11.25;;;10.75;;